F/V Aurore Boreale 1 — FGTG — position and weather

sailwx.info

Track history (hours):
 
Tides and Currents Weather Stations Pressure Air Temp Water Temp Dewpoint Dewpoint Depression Visibility Wind Speed Wind Dir Waves Ship Positions

F/V Aurore Boreale 1

Last reported at 2018-Jul-13 12:21 UTC. Time now 2018-Jul-15 19:03 UTC.
Position N 46°44' W 002°21'.

Length 23 m; draft 4 m.

Type: Fishing. MMSI: 227989000.

Date/timePositionNaut miles runAvg speedWind from/ knotsBaromVisibWave heightAir tempDewpointWater temp
2018-Jul-13 12:21N 46°44' W 002°21'13 7.3
2018-Jul-13 10:37N 46°41' W 002°38'1 6.6
2018-Jul-13 10:28N 46°40' W 002°40'3 6.5
2018-Jul-13 10:00N 46°39' W 002°44'3 6.4
2018-Jul-13 09:29N 46°38' W 002°48'3 6.6
2018-Jul-13 09:01N 46°36' W 002°52'4 6.8
2018-Jul-13 08:24N 46°35' W 002°58'3 6.8
2018-Jul-13 07:57N 46°34' W 003°02'3 6.9
2018-Jul-13 07:30N 46°33' W 003°06'5 7.6
2018-Jul-13 06:54N 46°31' W 003°13'3 7.5
2018-Jul-13 06:30N 46°30' W 003°17'4 7.4
2018-Jul-13 06:00N 46°29' W 003°22'4 6.4
2018-Jul-13 05:25N 46°27' W 003°27'3 6.4
2018-Jul-13 04:54N 46°26' W 003°31'37 0.8
2018-Jul-11 05:28N 45°50' W 003°44'8 4.8
2018-Jul-11 03:48N 45°44' W 003°37'2 5.3
2018-Jul-11 03:28N 45°45' W 003°39'1 2.1
2018-Jul-11 02:54N 45°44' W 003°38'0 1.2
2018-Jul-11 02:30N 45°44' W 003°37'0 1.0
2018-Jul-11 02:00N 45°44' W 003°36'1 1.2
2018-Jul-11 01:30N 45°43' W 003°36'1 1.2
2018-Jul-11 01:00N 45°43' W 003°36'1 2.3
2018-Jul-11 00:30N 45°41' W 003°36'3 4.4
2018-Jul-10 23:44N 45°40' W 003°32'1 4.9
2018-Jul-10 23:30N 45°39' W 003°32'2 3.8
2018-Jul-10 23:00N 45°37' W 003°30'1 1.3
2018-Jul-10 22:30N 45°37' W 003°29'0 0.9
2018-Jul-10 22:00N 45°37' W 003°29'1 1.4
2018-Jul-10 21:31N 45°38' W 003°30'1 1.4
2018-Jul-10 21:00N 45°38' W 003°30'1 1.4
2018-Jul-10 20:30N 45°39' W 003°31'1 1.1
2018-Jul-10 20:01N 45°39' W 003°32'1 1.3
2018-Jul-10 19:31N 45°39' W 003°33'0 0.4
2018-Jul-10 19:01N 45°39' W 003°33'0 0.3
2018-Jul-10 18:30N 45°39' W 003°32'0 0.5
2018-Jul-10 18:00N 45°39' W 003°32'1 1.6
2018-Jul-10 17:30N 45°40' W 003°32'1 1.3
2018-Jul-10 17:00N 45°40' W 003°33'1 1.4
2018-Jul-10 16:29N 45°41' W 003°34'1 1.3
2018-Jul-10 16:00N 45°41' W 003°35'1 1.4
2018-Jul-10 15:29N 45°41' W 003°36'0 0.6
2018-Jul-10 15:00N 45°41' W 003°36'0 0.9
2018-Jul-10 14:28N 45°42' W 003°36'0 0.6
2018-Jul-10 14:01N 45°42' W 003°35'0 0.6
2018-Jul-10 13:30N 45°42' W 003°35'0 0.5
2018-Jul-10 13:00N 45°42' W 003°35'0 0.6
2018-Jul-10 12:27N 45°42' W 003°34'0 0.5
2018-Jul-10 11:52N 45°43' W 003°34'0 0.6
2018-Jul-10 11:29N 45°43' W 003°34'1 0.4
2018-Jul-10 09:27N 45°44' W 003°34'1 1.9
2018-Jul-10 09:00N 45°44' W 003°35'4 7.6
2018-Jul-10 08:30N 45°46' W 003°40'3 6.1
2018-Jul-10 08:00N 45°48' W 003°43'3 5.9
2018-Jul-10 07:30N 45°50' W 003°46'3 5.8
2018-Jul-10 07:00N 45°52' W 003°50'3 6.0
2018-Jul-10 06:30N 45°54' W 003°53'3 6.1
2018-Jul-10 06:00N 45°56' W 003°56'3 5.7
2018-Jul-10 05:30N 45°57' W 003°60'3 5.6
2018-Jul-10 04:57N 45°59' W 004°03'3 5.7
2018-Jul-10 04:30N 46°01' W 004°06'3 5.8
2018-Jul-10 03:57N 46°03' W 004°09'14 3.3
2018-Jul-09 23:34N 46°17' W 004°17'1 9.4
2018-Jul-09 23:26N 46°17' W 004°18'3 5.5
2018-Jul-09 22:55N 46°19' W 004°22'1 1.2
2018-Jul-09 22:30N 46°19' W 004°23'1 1.2
2018-Jul-09 21:56N 46°19' W 004°23'1 1.4
2018-Jul-09 21:25N 46°18' W 004°24'1 1.4
2018-Jul-09 21:00N 46°18' W 004°25'1 1.5
2018-Jul-09 20:30N 46°19' W 004°26'2 0.9
2018-Jul-09 18:07N 46°19' W 004°29'0 1.4
2018-Jul-09 17:59N 46°19' W 004°29'4 2.3
2018-Jul-09 16:11N 46°17' W 004°24'0 0.5
2018-Jul-09 15:20N 46°18' W 004°23'0 0.7
2018-Jul-09 15:00N 46°18' W 004°23'0 0.6
2018-Jul-09 14:17N 46°18' W 004°23'0 1.0
2018-Jul-09 13:58N 46°18' W 004°22'0 0.8
2018-Jul-09 13:22N 46°18' W 004°22'32 1.2
2018-Jul-08 09:46N 45°55' W 003°50'1 4.8
2018-Jul-08 09:30N 45°54' W 003°49'2 4.4
2018-Jul-08 08:58N 45°52' W 003°47'1 2.8
2018-Jul-08 08:30N 45°51' W 003°47'3 6.2
2018-Jul-08 08:00N 45°48' W 003°47'2 4.8
2018-Jul-08 07:29N 45°48' W 003°43'3 5.6
2018-Jul-08 07:00N 45°46' W 003°40'1 2.9
2018-Jul-08 06:30N 45°45' W 003°39'0 0.7
2018-Jul-08 06:00N 45°46' W 003°38'0 1.0
2018-Jul-08 05:30N 45°46' W 003°39'1 1.3
2018-Jul-08 05:00N 45°46' W 003°40'2 1.1
2018-Jul-08 03:04N 45°46' W 003°43'0 1.5
2018-Jul-08 02:59N 45°46' W 003°43'1 1.5
2018-Jul-08 02:28N 45°47' W 003°43'1 1.3
2018-Jul-08 01:59N 45°47' W 003°43'1 1.0
2018-Jul-08 01:27N 45°47' W 003°43'1 2.9
2018-Jul-08 01:00N 45°48' W 003°45'1 1.1
2018-Jul-08 00:30N 45°48' W 003°46'1 1.0
2018-Jul-08 00:00N 45°48' W 003°47'0 0.9
2018-Jul-07 23:27N 45°48' W 003°47'1 1.3
2018-Jul-07 22:58N 45°48' W 003°47'1 1.2
2018-Jul-07 22:30N 45°49' W 003°47'3 5.7
2018-Jul-07 21:55N 45°48' W 003°42'0 1.0
2018-Jul-07 21:28N 45°48' W 003°43'0 0.9
2018-Jul-07 21:00N 45°49' W 003°43'1 0.9
2018-Jul-07 20:18N 45°49' W 003°44'0 0.8
2018-Jul-07 20:00N 45°49' W 003°44'0 0.8
2018-Jul-07 19:30N 45°50' W 003°44'0 0.5
2018-Jul-07 18:59N 45°50' W 003°45'0 0.4
2018-Jul-07 18:25N 45°50' W 003°45'0 0.4
2018-Jul-07 18:00N 45°50' W 003°45'0 0.2
2018-Jul-07 17:20N 45°50' W 003°45'0 0.2
2018-Jul-07 17:00N 45°50' W 003°45'  
Track history (hours):
 
Tides and Currents Weather Stations Pressure Air Temp Water Temp Dewpoint Dewpoint Depression Visibility Wind Speed Wind Dir Waves Ship Positions

F/V Aurore Boreale 1

Last reported at 2018-Jul-13 12:21 UTC. Time now 2018-Jul-15 19:03 UTC.
Position N 46°44' W 002°21'.

Length 23 m; draft 4 m.

Type: Fishing. MMSI: 227989000.

Date/timePositionNaut miles runAvg speedWind from/ knotsBaromVisibWave heightAir tempDewpointWater temp
2018-Jul-13 12:21N 46°44' W 002°21'13 7.3
2018-Jul-13 10:37N 46°41' W 002°38'1 6.6
2018-Jul-13 10:28N 46°40' W 002°40'3 6.5
2018-Jul-13 10:00N 46°39' W 002°44'3 6.4
2018-Jul-13 09:29N 46°38' W 002°48'3 6.6
2018-Jul-13 09:01N 46°36' W 002°52'4 6.8
2018-Jul-13 08:24N 46°35' W 002°58'3 6.8
2018-Jul-13 07:57N 46°34' W 003°02'3 6.9
2018-Jul-13 07:30N 46°33' W 003°06'5 7.6
2018-Jul-13 06:54N 46°31' W 003°13'3 7.5
2018-Jul-13 06:30N 46°30' W 003°17'4 7.4
2018-Jul-13 06:00N 46°29' W 003°22'4 6.4
2018-Jul-13 05:25N 46°27' W 003°27'3 6.4
2018-Jul-13 04:54N 46°26' W 003°31'37 0.8
2018-Jul-11 05:28N 45°50' W 003°44'8 4.8
2018-Jul-11 03:48N 45°44' W 003°37'2 5.3
2018-Jul-11 03:28N 45°45' W 003°39'1 2.1
2018-Jul-11 02:54N 45°44' W 003°38'0 1.2
2018-Jul-11 02:30N 45°44' W 003°37'0 1.0
2018-Jul-11 02:00N 45°44' W 003°36'1 1.2
2018-Jul-11 01:30N 45°43' W 003°36'1 1.2
2018-Jul-11 01:00N 45°43' W 003°36'1 2.3
2018-Jul-11 00:30N 45°41' W 003°36'3 4.4
2018-Jul-10 23:44N 45°40' W 003°32'1 4.9
2018-Jul-10 23:30N 45°39' W 003°32'2 3.8
2018-Jul-10 23:00N 45°37' W 003°30'1 1.3
2018-Jul-10 22:30N 45°37' W 003°29'0 0.9
2018-Jul-10 22:00N 45°37' W 003°29'1 1.4
2018-Jul-10 21:31N 45°38' W 003°30'1 1.4
2018-Jul-10 21:00N 45°38' W 003°30'1 1.4
2018-Jul-10 20:30N 45°39' W 003°31'1 1.1
2018-Jul-10 20:01N 45°39' W 003°32'1 1.3
2018-Jul-10 19:31N 45°39' W 003°33'0 0.4
2018-Jul-10 19:01N 45°39' W 003°33'0 0.3
2018-Jul-10 18:30N 45°39' W 003°32'0 0.5
2018-Jul-10 18:00N 45°39' W 003°32'1 1.6
2018-Jul-10 17:30N 45°40' W 003°32'1 1.3
2018-Jul-10 17:00N 45°40' W 003°33'1 1.4
2018-Jul-10 16:29N 45°41' W 003°34'1 1.3
2018-Jul-10 16:00N 45°41' W 003°35'1 1.4
2018-Jul-10 15:29N 45°41' W 003°36'0 0.6
2018-Jul-10 15:00N 45°41' W 003°36'0 0.9
2018-Jul-10 14:28N 45°42' W 003°36'0 0.6
2018-Jul-10 14:01N 45°42' W 003°35'0 0.6
2018-Jul-10 13:30N 45°42' W 003°35'0 0.5
2018-Jul-10 13:00N 45°42' W 003°35'0 0.6
2018-Jul-10 12:27N 45°42' W 003°34'0 0.5
2018-Jul-10 11:52N 45°43' W 003°34'0 0.6
2018-Jul-10 11:29N 45°43' W 003°34'1 0.4
2018-Jul-10 09:27N 45°44' W 003°34'1 1.9
2018-Jul-10 09:00N 45°44' W 003°35'4 7.6
2018-Jul-10 08:30N 45°46' W 003°40'3 6.1
2018-Jul-10 08:00N 45°48' W 003°43'3 5.9
2018-Jul-10 07:30N 45°50' W 003°46'3 5.8
2018-Jul-10 07:00N 45°52' W 003°50'3 6.0
2018-Jul-10 06:30N 45°54' W 003°53'3 6.1
2018-Jul-10 06:00N 45°56' W 003°56'3 5.7
2018-Jul-10 05:30N 45°57' W 003°60'3 5.6
2018-Jul-10 04:57N 45°59' W 004°03'3 5.7
2018-Jul-10 04:30N 46°01' W 004°06'3 5.8
2018-Jul-10 03:57N 46°03' W 004°09'14 3.3
2018-Jul-09 23:34N 46°17' W 004°17'1 9.4
2018-Jul-09 23:26N 46°17' W 004°18'3 5.5
2018-Jul-09 22:55N 46°19' W 004°22'1 1.2
2018-Jul-09 22:30N 46°19' W 004°23'1 1.2
2018-Jul-09 21:56N 46°19' W 004°23'1 1.4
2018-Jul-09 21:25N 46°18' W 004°24'1 1.4
2018-Jul-09 21:00N 46°18' W 004°25'1 1.5
2018-Jul-09 20:30N 46°19' W 004°26'2 0.9
2018-Jul-09 18:07N 46°19' W 004°29'0 1.4
2018-Jul-09 17:59N 46°19' W 004°29'4 2.3
2018-Jul-09 16:11N 46°17' W 004°24'0 0.5
2018-Jul-09 15:20N 46°18' W 004°23'0 0.7
2018-Jul-09 15:00N 46°18' W 004°23'0 0.6
2018-Jul-09 14:17N 46°18' W 004°23'0 1.0
2018-Jul-09 13:58N 46°18' W 004°22'0 0.8
2018-Jul-09 13:22N 46°18' W 004°22'32 1.2
2018-Jul-08 09:46N 45°55' W 003°50'1 4.8
2018-Jul-08 09:30N 45°54' W 003°49'2 4.4
2018-Jul-08 08:58N 45°52' W 003°47'1 2.8
2018-Jul-08 08:30N 45°51' W 003°47'3 6.2
2018-Jul-08 08:00N 45°48' W 003°47'2 4.8
2018-Jul-08 07:29N 45°48' W 003°43'3 5.6
2018-Jul-08 07:00N 45°46' W 003°40'1 2.9
2018-Jul-08 06:30N 45°45' W 003°39'0 0.7
2018-Jul-08 06:00N 45°46' W 003°38'0 1.0
2018-Jul-08 05:30N 45°46' W 003°39'1 1.3
2018-Jul-08 05:00N 45°46' W 003°40'2 1.1
2018-Jul-08 03:04N 45°46' W 003°43'0 1.5
2018-Jul-08 02:59N 45°46' W 003°43'1 1.5
2018-Jul-08 02:28N 45°47' W 003°43'1 1.3
2018-Jul-08 01:59N 45°47' W 003°43'1 1.0
2018-Jul-08 01:27N 45°47' W 003°43'1 2.9
2018-Jul-08 01:00N 45°48' W 003°45'1 1.1
2018-Jul-08 00:30N 45°48' W 003°46'1 1.0
2018-Jul-08 00:00N 45°48' W 003°47'0 0.9
2018-Jul-07 23:27N 45°48' W 003°47'1 1.3
2018-Jul-07 22:58N 45°48' W 003°47'1 1.2
2018-Jul-07 22:30N 45°49' W 003°47'3 5.7
2018-Jul-07 21:55N 45°48' W 003°42'0 1.0
2018-Jul-07 21:28N 45°48' W 003°43'0 0.9
2018-Jul-07 21:00N 45°49' W 003°43'1 0.9
2018-Jul-07 20:18N 45°49' W 003°44'0 0.8
2018-Jul-07 20:00N 45°49' W 003°44'0 0.8
2018-Jul-07 19:30N 45°50' W 003°44'0 0.5
2018-Jul-07 18:59N 45°50' W 003°45'0 0.4
2018-Jul-07 18:25N 45°50' W 003°45'0 0.4
2018-Jul-07 18:00N 45°50' W 003°45'0 0.2
2018-Jul-07 17:20N 45°50' W 003°45'0 0.2
2018-Jul-07 17:00N 45°50' W 003°45'  

Dump ship's entire track history